KCGF/CGF METAR and TAF weather

Enter ICAO airport designator
Station Type Date Time Source
KCGF METAR 2021/05/13 05:35 UTC NOAA

KCGF 130535Z AUTO 00000KT 10SM CLR 02/00 A3037 RMK AO2 T00180003


Station Type Date Time Source
KCGF Decoded METAR 2021/05/13 05:35 UTC NOAA

Cleveland / Cuyahoga, OH, United States (KCGF) 41-34N 081-29W
May 13, 2021 - 01:35 AM EDT / 2021.05.13 0535 UTC
Wind: Calm:0
Visibility: 10 mile(s):0
Sky conditions: clear
Temperature: 35.2 F (1.8 C)
Dew Point: 32.5 F (0.3 C)
Relative Humidity: 89%
Pressure (altimeter): 30.37 in. Hg (1028 hPa)
ob: KCGF 130535Z AUTO 00000KT 10SM CLR 02/00 A3037 RMK AO2 T00180003
cycle: 5

Station Type Date Time Source
KCGF TAF 2016/07/19 12:36 UTC NOAA

TAF KCGF 191136Z 1912/2012 VRB05KT P6SM SCT080
FM191400 33008KT P6SM SCT040
FM191900 35008KT P6SM SCT060
FM200000 04003KT P6SM SCT080
FM200700 14003KT P6SM SKC

Example: see airport list